01:39 Rennrad Moetz - Apfelstrasse - Oetztaler Hoehe - Sagl innen - Moetz
Ort Moetz Datum 03.04.2016 09:54:54
Kategorie Rennrad
Distanz 50,63 Kilometer Steigung 180,0 Meter Gefälle -176,0 Meter
Gesamt Zeit 01:39:12 Aktiv 01:39:12 Pause 00:00:00
Durchs. Tempo 30,6 km/h Tempo max. 51,5 km/h Tempo min. 17,2 km/h
Kalorien 0 Durchs. HF 119 BPM HF max. 144 BPM
Wetter 13 °C MostClouds Min/Max: 11,7 °C/14,3 °C; Druck: 1015,8 mbar; Rel. Feuchte: 67,1%; Taupunkt: 6,0 °C; Windgeschwindigkeit: 0,0 km/h; Niederschlag: 0,0mm
Ausrüstung Bontrager - RXL Road
Continental - Grand Prix 4000 S II 25-622
Poison - Rennrad
Shimano - HG CN-7901 Dura Ace
Notiz Moetz - Apfelstrasse - Oetztaler Hoehe - Sagl innen - Moetz ... trocken, eher frisch, leicht windig, locker ... garmin connect
Splits
Distanz (km) Gesamt Zeit Split Zeit Split Tempo Split Tempo Höhenprofil (m)
1,00 00:02:15 00:02:15 00:02:15 26,6 -9,69
2,00 00:04:27 00:02:12 00:02:13 27,1 1,92
3,00 00:06:36 00:02:08 00:02:09 27,9 2,82
4,00 00:08:45 00:02:09 00:02:09 27,9 0,79
5,00 00:10:46 00:02:00 00:02:01 29,8 9,91
6,00 00:12:45 00:01:58 00:01:58 30,4 2,77
7,00 00:14:42 00:01:57 00:01:57 30,7 -1,54
8,00 00:16:44 00:02:01 00:02:02 29,6 3,51
9,00 00:18:47 00:02:02 00:02:03 29,3 1,25
10,00 00:20:59 00:02:12 00:02:13 27,2 9,72
11,00 00:23:12 00:02:12 00:02:13 27,1 8,80
12,00 00:25:23 00:02:11 00:02:11 27,4 7,22
13,00 00:27:51 00:02:27 00:02:28 24,4 19,46
14,00 00:30:24 00:02:32 00:02:33 23,5 6,01
15,00 00:31:43 00:01:18 00:01:19 45,8 -24,32
16,00 00:33:24 00:01:41 00:01:41 35,5 -8,38
17,00 00:35:09 00:01:44 00:01:44 34,5 -6,83
18,00 00:36:48 00:01:39 00:01:39 36,3 -2,35
19,00 00:38:30 00:01:42 00:01:42 35,3 -4,25
20,00 00:40:17 00:01:47 00:01:47 33,5 -5,84
21,00 00:41:52 00:01:35 00:01:35 37,8 -8,67
22,00 00:43:38 00:01:45 00:01:46 34,1 -7,66
23,00 00:45:28 00:01:50 00:01:50 32,6 -4,42
24,00 00:47:20 00:01:51 00:01:52 32,3 0,03
25,00 00:49:07 00:01:46 00:01:47 33,7 -0,65
26,00 00:50:57 00:01:49 00:01:50 32,8 -3,89
27,00 00:52:45 00:01:48 00:01:48 33,2 0,76
28,00 00:54:37 00:01:51 00:01:52 32,3 -0,36
29,00 00:56:26 00:01:49 00:01:49 32,9 -0,99
30,00 00:58:03 00:01:36 00:01:36 37,3 -7,69
31,00 00:59:46 00:01:43 00:01:43 34,9 -2,76
32,00 01:01:32 00:01:46 00:01:46 33,8 0,80
33,00 01:03:25 00:01:53 00:01:53 31,9 0,53
34,00 01:05:13 00:01:47 00:01:48 33,5 -6,55
35,00 01:07:00 00:01:47 00:01:47 33,6 -0,09
36,00 01:09:19 00:02:18 00:02:19 25,9 14,33
37,00 01:11:12 00:01:52 00:01:53 31,9 -8,65
38,00 01:12:58 00:01:45 00:01:46 34,0 -6,15
39,00 01:14:58 00:02:00 00:02:00 30,0 1,70
40,00 01:17:11 00:02:13 00:02:13 27,1 2,59
41,00 01:19:16 00:02:05 00:02:05 28,8 0,29
42,00 01:21:16 00:01:59 00:02:00 30,1 2,55
43,00 01:23:17 00:02:01 00:02:01 29,7 2,55
44,00 01:25:32 00:02:15 00:02:15 26,6 6,48
45,00 01:27:36 00:02:03 00:02:04 29,1 1,96
46,00 01:29:40 00:02:03 00:02:04 29,1 -2,47
47,00 01:31:41 00:02:01 00:02:02 29,6 1,75
48,00 01:33:43 00:02:01 00:02:01 29,7 3,97
49,00 01:35:40 00:01:57 00:01:58 30,5 0,05
50,00 01:37:41 00:02:00 00:02:00 29,9 0,13
50,65 01:39:11 00:01:29 00:02:17 26,2 9,60